createdAt,value
2019-03-23T00:02:24.670Z,91.47
2019-03-23T00:07:26.404Z,88.93
2019-03-23T00:12:27.825Z,81.83
2019-03-23T00:17:29.544Z,88.47
2019-03-23T00:22:31.288Z,94.63
2019-03-23T00:27:32.999Z,76.90
2019-03-23T00:32:34.762Z,88.27
2019-03-23T00:37:36.191Z,80.00
2019-03-23T00:42:37.961Z,84.97
2019-03-23T00:47:39.382Z,82.23
2019-03-23T00:52:40.806Z,85.20
2019-03-23T00:57:42.237Z,87.60
2019-03-23T01:02:43.689Z,84.07
2019-03-23T01:07:45.105Z,92.83
2019-03-23T01:12:46.522Z,79.93
2019-03-23T01:17:47.947Z,84.50
2019-03-23T01:22:49.667Z,81.23
2019-03-23T01:27:51.087Z,84.93
2019-03-23T01:32:52.935Z,85.60
2019-03-23T01:37:54.709Z,96.10
2019-03-23T01:42:56.130Z,86.63
2019-03-23T01:47:57.871Z,83.23
2019-03-23T01:52:59.308Z,91.83
2019-03-23T01:58:01.090Z,83.40
2019-03-23T02:03:02.844Z,77.03
2019-03-23T02:08:04.311Z,77.47
2019-03-23T02:13:05.730Z,76.77
2019-03-23T02:18:07.159Z,77.73
2019-03-23T02:23:08.643Z,76.93
2019-03-23T02:28:10.053Z,77.47
2019-03-23T02:33:11.507Z,70.13
2019-03-23T02:38:12.974Z,72.27
2019-03-23T02:43:14.510Z,68.87
2019-03-23T02:48:16.104Z,70.30
2019-03-23T02:53:17.910Z,66.87
2019-03-23T02:58:19.414Z,75.03
2019-03-23T03:03:21.180Z,77.43
2019-03-23T03:08:22.601Z,80.40
2019-03-23T03:13:24.177Z,65.23
2019-03-23T03:18:25.694Z,69.83
2019-03-23T03:23:27.127Z,79.13
2019-03-23T03:28:28.541Z,74.90
2019-03-23T03:33:30.132Z,74.20
2019-03-23T03:38:31.553Z,63.90
2019-03-23T03:43:33.419Z,71.30
2019-03-23T03:48:35.191Z,70.50
2019-03-23T03:53:36.616Z,67.87
2019-03-23T03:58:38.039Z,78.37
2019-03-23T04:03:39.850Z,69.40
2019-03-23T04:08:41.372Z,84.70
2019-03-23T04:13:42.784Z,66.70
2019-03-23T04:18:44.209Z,86.60
2019-03-23T04:23:45.922Z,64.27
2019-03-23T04:28:47.658Z,69.67
2019-03-23T04:33:49.090Z,80.20
2019-03-23T04:38:50.521Z,62.47
2019-03-23T04:43:51.946Z,67.60
2019-03-23T04:48:53.378Z,67.37
2019-03-23T04:53:54.961Z,69.97
2019-03-23T04:58:56.400Z,73.77
2019-03-23T05:03:58.208Z,56.53
2019-03-23T05:08:59.979Z,64.83
2019-03-23T05:14:01.406Z,69.10
2019-03-23T05:19:02.825Z,68.60
2019-03-23T05:24:04.243Z,77.67
2019-03-23T05:29:05.660Z,69.77
2019-03-23T05:34:07.511Z,116.00
2019-03-23T05:39:09.285Z,88.53
2019-03-23T05:44:10.712Z,95.67
2019-03-23T05:49:12.129Z,73.63
2019-03-23T05:54:13.724Z,113.03
2019-03-23T05:59:15.237Z,59.30
2019-03-23T06:04:16.824Z,67.60
2019-03-23T06:09:18.342Z,55.60
2019-03-23T06:14:20.027Z,65.27
2019-03-23T06:19:21.458Z,60.60
2019-03-23T06:24:22.969Z,54.73
2019-03-23T06:29:24.769Z,58.83
2019-03-23T06:34:26.446Z,51.47
2019-03-23T06:39:28.210Z,59.33
2019-03-23T06:44:29.637Z,63.63
2019-03-23T06:49:31.495Z,55.60
2019-03-23T06:54:32.991Z,55.87
2019-03-23T06:59:34.708Z,56.83
2019-03-23T07:04:36.256Z,58.07
2019-03-23T07:09:38.173Z,49.53
2019-03-23T07:14:39.715Z,48.47
2019-03-23T07:19:41.199Z,49.80
2019-03-23T07:24:42.730Z,50.40
2019-03-23T07:29:44.557Z,56.33
2019-03-23T07:34:46.445Z,55.80
2019-03-23T07:39:48.096Z,52.33
2019-03-23T07:44:49.619Z,56.33
2019-03-23T07:49:51.084Z,59.43
2019-03-23T07:54:52.510Z,58.13
2019-03-23T07:59:53.937Z,64.37
2019-03-23T08:04:55.696Z,62.63
2019-03-23T08:09:57.469Z,64.67
2019-03-23T08:14:59.332Z,72.10
2019-03-23T08:20:01.119Z,69.30
2019-03-23T08:25:05.134Z,80.33
2019-03-23T08:30:07.226Z,76.17
2019-03-23T08:35:09.306Z,76.53
2019-03-23T08:40:11.179Z,86.90
2019-03-23T08:45:12.799Z,90.17
2019-03-23T08:50:14.241Z,77.23
2019-03-23T08:55:15.668Z,89.50
2019-03-23T09:00:17.495Z,87.00
2019-03-23T09:05:19.117Z,80.40
2019-03-23T09:10:20.546Z,94.00
2019-03-23T09:15:21.996Z,86.87
2019-03-23T09:20:23.417Z,82.87
2019-03-23T09:25:24.832Z,87.17
2019-03-23T09:30:26.353Z,82.03
2019-03-23T09:35:27.845Z,82.63
2019-03-23T09:40:29.594Z,78.70
2019-03-23T09:45:31.059Z,82.27
2019-03-23T09:50:32.552Z,84.90
2019-03-23T09:55:34.301Z,79.00
2019-03-23T10:00:36.079Z,78.60
2019-03-23T10:06:27.502Z,77.07
2019-03-23T10:11:28.936Z,74.97
2019-03-23T10:16:30.455Z,78.57
2019-03-23T10:21:32.190Z,68.10
2019-03-23T10:26:33.713Z,63.73
2019-03-23T10:31:35.135Z,55.37
2019-03-23T10:36:36.673Z,64.70
2019-03-23T10:41:38.494Z,66.13
2019-03-23T10:46:39.911Z,67.77
2019-03-23T10:51:41.350Z,67.80
2019-03-23T10:56:42.775Z,70.43
2019-03-23T11:01:44.226Z,64.43
2019-03-23T11:06:45.744Z,58.90
2019-03-23T11:11:47.595Z,53.73
2019-03-23T11:16:49.311Z,67.13
2019-03-23T11:21:50.813Z,62.43
2019-03-23T11:26:52.236Z,55.37
2019-03-23T11:31:53.651Z,62.50
2019-03-23T11:36:55.148Z,57.73
2019-03-23T11:41:56.728Z,62.53
2019-03-23T11:46:58.270Z,50.20
2019-03-23T11:52:00.058Z,55.20
2019-03-23T11:57:01.500Z,61.10
2019-03-23T12:02:03.131Z,64.63
2019-03-23T12:07:04.640Z,61.73
2019-03-23T12:12:06.427Z,75.93
2019-03-23T12:17:08.187Z,75.33
2019-03-23T12:22:09.985Z,71.93
2019-03-23T12:27:11.879Z,71.20
2019-03-23T12:32:14.346Z,74.63
2019-03-23T12:37:15.980Z,66.70
2019-03-23T12:42:17.884Z,76.77
2019-03-23T12:47:19.344Z,77.17
2019-03-23T12:52:20.950Z,80.27
2019-03-23T12:57:22.469Z,80.07
2019-03-23T13:02:23.936Z,79.93
2019-03-23T13:07:25.725Z,79.10
2019-03-23T13:12:27.160Z,81.80
2019-03-23T13:17:28.589Z,77.03
2019-03-23T13:22:30.270Z,85.53
2019-03-23T13:27:31.799Z,76.83
2019-03-23T13:32:33.563Z,83.03
2019-03-23T13:37:35.110Z,79.77
2019-03-23T13:42:36.736Z,82.53
2019-03-23T13:47:39.212Z,81.97
2019-03-23T13:52:40.634Z,91.03
2019-03-23T13:57:42.432Z,84.73
2019-03-23T14:02:44.263Z,80.50
2019-03-23T14:07:45.761Z,78.70
2019-03-23T14:12:47.176Z,79.30
2019-03-23T14:17:48.920Z,78.83
2019-03-23T14:22:50.704Z,75.00
2019-03-23T14:27:52.241Z,65.97
2019-03-23T14:32:53.698Z,65.00
2019-03-23T14:37:55.497Z,65.20
2019-03-23T14:42:59.739Z,56.83
2019-03-23T14:48:01.280Z,57.63
2019-03-23T14:53:03.062Z,55.87
2019-03-23T14:58:04.626Z,53.17
2019-03-23T15:03:06.165Z,58.13
2019-03-23T15:08:07.642Z,48.73
2019-03-23T15:13:09.261Z,57.03
2019-03-23T15:18:11.122Z,53.77
2019-03-23T15:23:12.536Z,57.93
2019-03-23T15:28:14.363Z,55.63
2019-03-23T15:33:15.841Z,60.13
2019-03-23T15:38:17.818Z,53.17
2019-03-23T15:43:19.493Z,50.30
2019-03-23T15:48:20.920Z,56.73
2019-03-23T15:53:22.715Z,53.03
2019-03-23T15:58:24.147Z,48.00
2019-03-23T16:03:25.590Z,45.77
2019-03-23T16:08:27.411Z,50.93
2019-03-23T16:13:29.127Z,48.47
2019-03-23T16:18:30.639Z,49.83
2019-03-23T16:23:32.056Z,43.37
2019-03-23T16:28:33.570Z,48.33
2019-03-23T16:33:35.042Z,48.50
2019-03-23T16:38:36.913Z,34.37
2019-03-23T16:43:38.702Z,33.27
2019-03-23T16:48:40.324Z,32.87
2019-03-23T16:53:41.748Z,32.90
2019-03-23T16:58:43.585Z,34.23
2019-03-23T17:03:45.072Z,32.00
2019-03-23T17:08:46.821Z,34.30
2019-03-23T17:13:48.622Z,34.37
2019-03-23T17:18:50.437Z,35.23
2019-03-23T17:23:52.272Z,38.73
2019-03-23T17:28:53.728Z,28.80
2019-03-23T17:33:55.208Z,34.50
2019-03-23T17:38:57.056Z,30.07
2019-03-23T17:43:58.861Z,27.00
2019-03-23T17:49:00.383Z,29.00
2019-03-23T17:54:01.805Z,27.57
2019-03-23T17:59:03.419Z,29.67
2019-03-23T18:04:04.849Z,19.80
2019-03-23T18:09:06.709Z,23.93
2019-03-23T18:14:08.409Z,24.00
2019-03-23T18:19:09.923Z,22.87
2019-03-23T18:24:11.344Z,22.47
2019-03-23T18:29:12.878Z,26.40
2019-03-23T18:34:14.773Z,25.00
2019-03-23T18:39:16.550Z,26.77
2019-03-23T18:44:18.389Z,28.10
2019-03-23T18:49:20.178Z,21.97
2019-03-23T18:54:21.893Z,19.80
2019-03-23T18:59:23.348Z,19.77
2019-03-23T19:04:24.861Z,23.23
2019-03-23T19:09:26.327Z,17.90
2019-03-23T19:14:28.117Z,22.87
2019-03-23T19:19:29.570Z,28.97
2019-03-23T19:24:31.087Z,23.20
2019-03-23T19:29:32.826Z,27.23
2019-03-23T19:34:34.276Z,28.17
2019-03-23T19:39:35.763Z,28.30
2019-03-23T19:44:37.208Z,28.00
2019-03-23T19:49:38.672Z,34.33
2019-03-23T19:54:40.393Z,32.53
2019-03-23T19:59:42.237Z,32.63
2019-03-23T20:04:44.045Z,35.00
2019-03-23T20:09:45.562Z,36.03
2019-03-23T20:14:47.019Z,31.67
2019-03-23T20:19:48.498Z,36.17
2019-03-23T20:24:49.960Z,38.60
2019-03-23T20:29:51.451Z,52.77
2019-03-23T20:34:52.942Z,47.33
2019-03-23T20:39:54.619Z,48.97
2019-03-23T20:44:56.518Z,44.73
2019-03-23T20:49:58.437Z,38.30
2019-03-23T20:55:00.439Z,42.20
2019-03-23T21:00:02.097Z,43.23
2019-03-23T21:05:05.112Z,45.03
2019-03-23T21:10:07.249Z,43.30
2019-03-23T21:15:08.933Z,46.90
2019-03-23T21:20:10.736Z,46.27
2019-03-23T21:25:12.921Z,49.30
2019-03-23T21:30:16.598Z,42.10
2019-03-23T21:35:18.423Z,42.93
2019-03-23T21:40:19.972Z,45.83
2019-03-23T21:45:22.034Z,45.70
2019-03-23T21:50:23.538Z,43.67
2019-03-23T21:55:25.487Z,44.50
2019-03-23T22:00:34.447Z,51.30
2019-03-23T22:05:36.694Z,42.07
2019-03-23T22:10:38.590Z,42.80
2019-03-23T22:15:40.833Z,45.60
2019-03-23T22:20:42.506Z,47.60
2019-03-23T22:25:44.136Z,40.97
2019-03-23T22:30:46.192Z,47.93
2019-03-23T22:35:47.823Z,46.43
2019-03-23T22:40:49.736Z,45.67
2019-03-23T22:45:51.253Z,47.73
2019-03-23T22:50:52.723Z,42.70
2019-03-23T22:55:55.966Z,45.50
2019-03-23T23:00:57.634Z,44.47
2019-03-23T23:05:59.366Z,47.33
2019-03-23T23:11:00.913Z,40.40
2019-03-23T23:16:03.098Z,47.47
2019-03-23T23:21:04.679Z,46.17
2019-03-23T23:26:06.748Z,60.00
2019-03-23T23:31:08.336Z,57.33
2019-03-23T23:36:10.290Z,53.60
2019-03-23T23:41:12.390Z,56.10
2019-03-23T23:46:13.787Z,60.10
2019-03-23T23:51:15.923Z,65.33
2019-03-23T23:56:17.428Z,50.40
